Time;durP1;ratioP1;P1;durP2;ratioP2;P2;SDS_P1;SDS_P2;PMS_P1;PMS_P2;Temp;Humidity;BMP_temperature;BMP_pressure;BME280_temperature;BME280_humidity;BME280_pressure;Samples;Min_cycle;Max_cycle;Signal;HPM_P1;HPM_P2
2021/09/11 00:01:21;;;;;;;2.83;2.70;;;;;;;18.46;74.26;100366.63;5014688;28;20040;-73
2021/09/11 00:03:46;;;;;;;2.97;2.80;;;;;;;18.47;74.21;100368.22;4992737;28;20026;-74
2021/09/11 00:06:12;;;;;;;3.33;2.95;;;;;;;18.46;74.16;100366.63;4977258;28;20449;-74
2021/09/11 00:08:37;;;;;;;3.75;3.53;;;;;;;18.41;74.20;100375.06;5006158;28;20079;-72
2021/09/11 00:11:03;;;;;;;2.72;2.58;;;;;;;18.43;74.38;100372.78;5012074;28;20025;-76
2021/09/11 00:13:28;;;;;;;2.85;2.53;;;;;;;18.45;73.71;100376.06;4993881;28;20317;-72
2021/09/11 00:15:54;;;;;;;2.47;2.38;;;;;;;18.45;74.36;100376.06;5016614;28;20057;-74
2021/09/11 00:18:19;;;;;;;2.30;2.10;;;;;;;18.44;74.02;100369.72;5001919;28;20098;-72
2021/09/11 00:20:45;;;;;;;2.95;2.75;;;;;;;18.46;73.80;100372.16;4991864;28;20411;-74
2021/09/11 00:23:12;;;;;;;3.67;2.97;;;;;;;18.44;73.71;100368.88;5011222;28;20060;-73
2021/09/11 00:25:38;;;;;;;3.75;3.08;;;;;;;18.44;73.97;100369.72;5011697;28;20026;-73
2021/09/11 00:28:04;;;;;;;8.27;3.28;;;;;;;18.44;74.00;100379.94;5006790;28;20041;-73
2021/09/11 00:30:30;;;;;;;2.83;2.63;;;;;;;18.40;73.74;100362.34;5007963;28;20023;-73
2021/09/11 00:32:55;;;;;;;2.70;2.60;;;;;;;18.40;73.81;100362.34;5025523;28;20049;-73
2021/09/11 00:35:21;;;;;;;5.65;3.25;;;;;;;18.38;73.86;100364.63;5005857;28;20029;-74
2021/09/11 00:37:47;;;;;;;2.60;2.40;;;;;;;18.38;73.92;100364.63;5008649;28;20034;-74
2021/09/11 00:40:15;;;;;;;2.65;2.55;;;;;;;18.38;74.11;100365.44;5021209;28;20030;-74
2021/09/11 00:42:47;;;;;;;3.42;3.15;;;;;;;18.37;73.71;100363.81;5012573;28;20029;-74
2021/09/11 00:45:17;;;;;;;3.42;3.17;;;;;;;18.34;74.35;100358.94;5002376;28;20030;-73
2021/09/11 00:47:42;;;;;;;3.30;3.05;;;;;;;18.27;73.79;100364.91;5018257;28;20033;-73
2021/09/11 00:50:09;;;;;;;6.95;2.65;;;;;;;18.30;74.14;100353.19;4978989;28;20072;-73
2021/09/11 00:52:34;;;;;;;3.72;2.63;;;;;;;18.28;73.88;100355.47;5021885;28;20101;-73
2021/09/11 00:55:01;;;;;;;3.13;2.88;;;;;;;18.30;73.96;100358.72;5010927;28;20017;-72
2021/09/11 00:57:27;;;;;;;4.78;2.60;;;;;;;18.28;73.77;100357.41;5025125;28;20111;-73
2021/09/11 00:59:53;;;;;;;2.53;2.42;;;;;;;18.28;74.12;100358.25;5012571;28;20459;-73
2021/09/11 01:02:18;;;;;;;5.45;2.80;;;;;;;18.27;73.83;100362.13;4992785;28;20506;-72
2021/09/11 01:04:44;;;;;;;2.78;2.67;;;;;;;18.25;nan;100361.66;4975184;28;20030;-74
2021/09/11 01:07:09;;;;;;;3.20;2.92;;;;;;;18.25;74.00;100356.13;4992699;28;20065;-73
2021/09/11 01:09:35;;;;;;;2.60;2.50;;;;;;;18.23;73.59;100355.59;5004299;28;20085;-73
2021/09/11 01:12:03;;;;;;;2.28;2.17;;;;;;;18.24;73.51;100359.22;5008485;28;20440;-73
2021/09/11 01:14:29;;;;;;;3.75;3.10;;;;;;;18.19;73.41;100351.84;4994763;28;20025;-79
2021/09/11 01:16:54;;;;;;;3.53;2.85;;;;;;;18.15;74.11;100350.88;4982464;28;20044;-78
2021/09/11 01:19:20;;;;;;;3.28;2.58;;;;;;;18.13;74.07;100353.94;4996708;28;20061;-75
2021/09/11 01:21:45;;;;;;;2.90;2.70;;;;;;;18.12;73.52;100354.25;5007854;28;20120;-76
2021/09/11 01:24:10;;;;;;;2.70;2.50;;;;;;;18.11;73.96;100366.47;5019135;28;20539;-76
2021/09/11 01:26:36;;;;;;;2.95;2.75;;;;;;;18.07;74.24;100354.41;4978746;28;20018;-79
2021/09/11 01:29:02;;;;;;;3.38;2.60;;;;;;;18.08;74.32;100356.03;4978657;28;20026;-80
2021/09/11 01:31:36;;;;;;;2.42;2.33;;;;;;;18.12;74.13;100359.78;5016258;28;20053;-79
2021/09/11 01:34:01;;;;;;;2.88;2.67;;;;;;;18.08;73.86;100356.03;5012533;28;20095;-80
2021/09/11 01:36:28;;;;;;;2.95;2.70;;;;;;;18.07;74.13;100369.03;5001920;28;20026;-80
2021/09/11 01:38:54;;;;;;;2.90;2.70;;;;;;;18.08;73.97;100356.84;5002589;28;20029;-80
2021/09/11 01:41:19;;;;;;;2.10;2.00;;;;;;;18.12;73.51;100365.31;4999115;28;20030;-75
2021/09/11 01:43:45;;;;;;;4.25;2.63;;;;;;;18.05;74.39;100348.38;4976364;28;20088;-71
2021/09/11 01:46:10;;;;;;;2.67;2.50;;;;;;;18.06;73.95;100358.31;4988167;28;20045;-70
2021/09/11 01:48:36;;;;;;;2.95;2.67;;;;;;;18.00;73.70;100348.50;4974149;28;20456;-71
2021/09/11 01:51:01;;;;;;;2.50;2.30;;;;;;;18.00;73.63;100360.38;5009730;28;20030;-72
2021/09/11 01:53:27;;;;;;;3.20;2.97;;;;;;;17.99;73.86;100357.94;4993857;28;20050;-80
2021/09/11 01:55:52;;;;;;;4.32;2.60;;;;;;;17.99;73.82;100364.31;5013625;28;20048;-81
2021/09/11 01:58:18;;;;;;;2.13;2.03;;;;;;;17.95;73.85;100358.56;5011279;28;20050;-80
2021/09/11 02:00:44;;;;;;;5.38;2.13;;;;;;;17.93;74.08;100360.84;5012122;28;20030;-79
2021/09/11 02:03:10;;;;;;;4.28;1.73;;;;;;;17.94;73.82;100362.47;5019235;28;20029;-79
2021/09/11 02:05:35;;;;;;;2.30;2.10;;;;;;;17.95;73.81;100366.06;5019076;28;20105;-79
2021/09/11 02:08:01;;;;;;;4.55;1.63;;;;;;;17.94;74.03;100365.22;5013422;28;20033;-80
2021/09/11 02:10:27;;;;;;;3.13;2.00;;;;;;;17.93;74.20;100365.56;5003905;28;20403;-76
2021/09/11 02:12:53;;;;;;;2.55;2.35;;;;;;;17.94;74.37;100373.53;4996822;28;20542;-75
2021/09/11 02:15:21;;;;;;;1.65;1.55;;;;;;;17.92;74.33;100373.03;4985513;28;20048;-74
2021/09/11 02:17:47;;;;;;;3.47;1.67;;;;;;;17.89;74.15;100370.88;5015434;28;20387;-73
2021/09/11 02:20:13;;;;;;;4.45;2.28;;;;;;;17.79;73.64;100365.63;5008911;28;20053;-74
2021/09/11 02:22:39;;;;;;;1.30;1.30;;;;;;;17.86;73.93;100373.44;4998667;28;20042;-74
2021/09/11 02:25:06;;;;;;;1.73;1.63;;;;;;;17.87;74.01;100378.69;4991005;28;20518;-74
2021/09/11 02:27:32;;;;;;;2.65;1.77;;;;;;;17.88;73.89;100385.84;5012986;28;20029;-73
2021/09/11 02:29:57;;;;;;;2.67;2.13;;;;;;;17.86;74.21;100377.06;4996761;28;20041;-72
2021/09/11 02:32:23;;;;;;;1.58;1.58;;;;;;;17.87;73.97;100372.31;5011274;28;20026;-73
2021/09/11 02:34:49;;;;;;;2.38;1.73;;;;;;;17.86;73.72;100363.22;5007331;28;20030;-73
2021/09/11 02:37:14;;;;;;;1.90;1.80;;;;;;;17.89;74.06;100370.88;5006278;28;20025;-73
2021/09/11 02:39:43;;;;;;;2.10;2.00;;;;;;;17.90;74.09;100372.56;5010376;28;20090;-73
2021/09/11 02:42:10;;;;;;;5.45;1.50;;;;;;;17.87;74.24;100367.63;4981339;28;20022;-74
2021/09/11 02:44:36;;;;;;;1.60;1.50;;;;;;;17.92;73.91;100363.94;5011824;28;20026;-74
2021/09/11 02:47:01;;;;;;;1.55;1.45;;;;;;;17.95;73.44;100369.63;5013598;28;20036;-74
2021/09/11 02:49:27;;;;;;;2.58;1.95;;;;;;;17.98;73.87;100362.66;5000117;28;20503;-79
2021/09/11 02:51:53;;;;;;;2.42;2.00;;;;;;;17.94;73.67;100365.22;4988398;28;20030;-79
2021/09/11 02:54:18;;;;;;;2.15;2.00;;;;;;;17.96;73.42;100357.44;5011134;28;20026;-78
2021/09/11 02:56:43;;;;;;;1.90;1.60;;;;;;;17.99;73.65;100355.16;4996026;28;20056;-74
2021/09/11 02:59:09;;;;;;;1.45;1.35;;;;;;;18.02;73.42;100358.13;5008723;28;20054;-72
2021/09/11 03:01:34;;;;;;;1.95;1.85;;;;;;;18.06;73.39;100363.84;5005681;28;20034;-73
2021/09/11 03:04:00;;;;;;;1.95;1.85;;;;;;;18.06;72.98;100363.84;4992728;28;20037;-74
2021/09/11 03:06:25;;;;;;;1.90;1.80;;;;;;;18.04;73.16;100357.81;4992221;28;20425;-74
2021/09/11 03:08:51;;;;;;;7.22;1.77;;;;;;;18.02;73.24;100360.06;4972063;28;20524;-74
2021/09/11 03:11:16;;;;;;;1.67;1.58;;;;;;;18.02;73.22;100362.84;4971230;28;20395;-71
2021/09/11 03:13:42;;;;;;;1.48;1.38;;;;;;;18.02;73.24;100371.97;4976830;28;20053;-72
2021/09/11 03:16:09;;;;;;;1.67;1.45;;;;;;;17.99;72.91;100363.47;5007532;28;20036;-71
2021/09/11 03:18:37;;;;;;;2.60;1.63;;;;;;;17.94;72.69;100368.00;4998745;28;20041;-71
2021/09/11 03:21:03;;;;;;;1.70;1.65;;;;;;;17.90;72.74;100367.03;4974948;28;20057;-71
2021/09/11 03:23:28;;;;;;;4.88;1.40;;;;;;;17.91;72.63;100367.81;4979680;28;20037;-71
2021/09/11 03:25:54;;;;;;;3.80;1.88;;;;;;;17.83;72.49;100355.56;5014509;28;20025;-72
2021/09/11 03:28:19;;;;;;;2.30;1.65;;;;;;;17.79;72.99;100354.56;4989881;28;20033;-71
2021/09/11 03:30:45;;;;;;;2.22;1.40;;;;;;;17.78;73.23;100363.97;5001833;28;20385;-71
2021/09/11 03:33:10;;;;;;;1.98;1.63;;;;;;;17.75;72.97;100359.88;4989326;28;20426;-71
2021/09/11 03:35:36;;;;;;;5.68;1.60;;;;;;;17.71;73.19;100360.84;4999741;28;20121;-71
2021/09/11 03:38:02;;;;;;;3.40;1.75;;;;;;;17.63;72.88;100352.16;4994253;28;20345;-69
2021/09/11 03:40:27;;;;;;;1.90;1.63;;;;;;;17.61;72.71;100350.88;4998008;28;20057;-71
2021/09/11 03:42:53;;;;;;;1.60;1.50;;;;;;;17.56;73.26;100365.63;5005220;28;20057;-71
2021/09/11 03:45:18;;;;;;;1.83;1.73;;;;;;;17.44;73.35;100340.50;5008471;28;20030;-70
2021/09/11 03:47:44;;;;;;;1.52;1.42;;;;;;;17.52;73.05;100353.59;5008384;28;20034;-70
2021/09/11 03:50:09;;;;;;;1.48;1.38;;;;;;;17.54;72.95;100359.59;4992344;28;20085;-71
2021/09/11 03:52:35;;;;;;;1.45;1.35;;;;;;;17.55;72.84;100360.41;5004883;28;20076;-71
2021/09/11 03:55:04;;;;;;;2.00;1.85;;;;;;;17.55;72.83;100352.94;4976426;28;20059;-72
2021/09/11 03:57:30;;;;;;;1.30;1.15;;;;;;;17.55;72.77;100350.19;4993207;28;20430;-71
2021/09/11 03:59:56;;;;;;;1.17;1.10;;;;;;;17.57;72.81;100358.97;4975878;28;20030;-71
2021/09/11 04:02:22;;;;;;;1.75;1.40;;;;;;;17.58;73.24;100366.13;4991408;28;20033;-72
2021/09/11 04:04:47;;;;;;;1.85;1.60;;;;;;;17.54;72.65;100359.59;5006498;28;20049;-71
2021/09/11 04:07:13;;;;;;;1.92;1.73;;;;;;;17.54;73.03;100367.09;5013442;28;20026;-75
2021/09/11 04:09:38;;;;;;;1.00;1.00;;;;;;;17.53;72.63;100363.50;4989668;28;20041;-75
2021/09/11 04:12:04;;;;;;;2.70;1.30;;;;;;;17.56;73.00;100362.84;4992166;28;20030;-76
2021/09/11 04:14:29;;;;;;;3.90;1.25;;;;;;;17.59;72.73;100373.28;5011352;28;20121;-77
2021/09/11 04:16:55;;;;;;;1.40;1.33;;;;;;;17.57;72.59;100370.03;5014275;28;20037;-77
2021/09/11 04:19:20;;;;;;;1.00;1.00;;;;;;;17.59;72.60;100372.47;4999385;28;20033;-76
2021/09/11 04:21:46;;;;;;;1.27;1.17;;;;;;;17.65;72.65;100375.94;4993496;28;20014;-76
2021/09/11 04:24:11;;;;;;;1.50;1.40;;;;;;;17.62;72.74;100372.69;5009971;28;20037;-76
2021/09/11 04:26:39;;;;;;;0.98;0.98;;;;;;;17.65;72.56;100375.94;5006762;28;20396;-75
2021/09/11 04:29:05;;;;;;;1.38;1.27;;;;;;;17.60;72.02;100380.44;5008124;28;20087;-76
2021/09/11 04:31:31;;;;;;;1.00;1.00;;;;;;;17.59;72.14;100389.88;5013571;28;20033;-77
2021/09/11 04:33:56;;;;;;;1.88;1.02;;;;;;;17.56;72.44;100370.34;5006183;28;20027;-76
2021/09/11 04:36:22;;;;;;;1.95;1.25;;;;;;;17.54;72.35;100380.91;5008989;28;20085;-74
2021/09/11 04:38:47;;;;;;;1.45;0.93;;;;;;;17.57;72.52;100380.28;4998632;28;20022;-74
2021/09/11 04:41:13;;;;;;;1.50;1.40;;;;;;;17.56;71.78;100386.94;4990422;28;20085;-76
2021/09/11 04:43:39;;;;;;;2.30;1.17;;;;;;;17.54;72.24;100384.47;5005982;28;20048;-75
2021/09/11 04:46:04;;;;;;;3.05;1.30;;;;;;;17.50;71.76;100386.22;5010431;28;20400;-75
2021/09/11 04:48:30;;;;;;;1.30;1.13;;;;;;;17.49;71.90;100390.13;4987136;28;20080;-74
2021/09/11 04:50:56;;;;;;;1.80;1.70;;;;;;;17.41;71.62;100382.59;4991740;28;20034;-74
2021/09/11 04:53:21;;;;;;;3.70;1.17;;;;;;;17.37;71.73;100387.13;5010173;28;20036;-74
2021/09/11 04:55:47;;;;;;;0.70;0.70;;;;;;;17.31;72.07;100388.38;4995865;28;20121;-73
2021/09/11 04:58:15;;;;;;;2.25;1.45;;;;;;;17.31;71.78;100388.38;4975250;28;20060;-73
2021/09/11 05:00:41;;;;;;;1.73;1.20;;;;;;;17.31;72.07;100391.94;4992536;28;20034;-73
2021/09/11 05:03:06;;;;;;;2.58;1.30;;;;;;;17.27;72.18;100400.06;5008970;28;20030;-73
2021/09/11 05:05:32;;;;;;;1.40;1.05;;;;;;;17.25;72.29;100396.75;5002370;28;20498;-71
2021/09/11 05:07:58;;;;;;;1.10;1.00;;;;;;;17.26;72.06;100412.22;4992436;28;20041;-73
2021/09/11 05:10:24;;;;;;;3.88;0.93;;;;;;;17.19;71.64;100400.78;4992758;28;20026;-76
2021/09/11 05:12:54;;;;;;;1.02;1.02;;;;;;;17.20;71.65;100407.13;4991296;28;20046;-73
2021/09/11 05:15:27;;;;;;;0.60;0.60;;;;;;;17.23;72.04;100415.63;4977098;28;20583;-72
2021/09/11 05:17:53;;;;;;;2.08;1.30;;;;;;;17.16;72.14;100415.22;5009094;28;20034;-71
2021/09/11 05:20:18;;;;;;;1.60;1.27;;;;;;;17.18;72.23;100417.66;4962284;28;20052;-72
2021/09/11 05:22:44;;;;;;;1.23;1.13;;;;;;;17.13;71.91;100410.31;5003323;28;20388;-72
2021/09/11 05:25:10;;;;;;;1.08;0.90;;;;;;;17.11;72.23;100412.56;4985137;28;20088;-71
2021/09/11 05:27:36;;;;;;;2.65;1.15;;;;;;;17.10;72.25;100422.00;4974797;28;20088;-71
2021/09/11 05:30:03;;;;;;;0.68;0.63;;;;;;;17.06;72.11;100420.97;4988275;28;20400;-71
2021/09/11 05:32:29;;;;;;;0.85;0.70;;;;;;;17.03;72.15;100421.59;4972189;28;20030;-70
2021/09/11 05:34:54;;;;;;;0.90;0.90;;;;;;;17.02;71.96;100426.28;4974959;28;20026;-76
2021/09/11 05:37:20;;;;;;;1.20;0.75;;;;;;;16.99;72.37;100426.09;4989348;28;20385;-76
2021/09/11 05:39:45;;;;;;;4.03;1.50;;;;;;;16.92;71.92;100421.81;5014180;28;20021;-76
2021/09/11 05:42:11;;;;;;;1.67;1.58;;;;;;;16.88;71.68;100426.31;5016508;28;20025;-76
2021/09/11 05:44:38;;;;;;;1.25;1.15;;;;;;;16.88;71.91;100431.84;5012500;28;20045;-76
2021/09/11 05:47:03;;;;;;;1.55;1.10;;;;;;;16.79;71.89;100433.63;5001584;28;20026;-74
2021/09/11 05:49:29;;;;;;;2.63;1.10;;;;;;;16.78;72.14;100437.53;4997878;28;20039;-75
2021/09/11 05:51:54;;;;;;;4.88;1.05;;;;;;;16.73;72.65;100441.22;5017526;28;20029;-75
2021/09/11 05:54:20;;;;;;;0.75;0.75;;;;;;;16.66;72.66;100437.22;5016682;28;20041;-75
2021/09/11 05:56:45;;;;;;;1.75;1.30;;;;;;;16.58;72.53;100445.09;5003699;28;20029;-76
2021/09/11 05:59:11;;;;;;;1.27;1.02;;;;;;;16.53;72.44;100442.44;5017886;28;20073;-76
2021/09/11 06:01:36;;;;;;;2.33;1.00;;;;;;;16.42;72.59;100452.03;4996963;28;20511;-76
2021/09/11 06:04:02;;;;;;;1.67;0.70;;;;;;;16.36;72.73;100456.03;5015884;28;20088;-74
2021/09/11 06:06:28;;;;;;;1.10;0.73;;;;;;;16.30;73.26;100460.00;5006727;28;20084;-75
2021/09/11 06:08:54;;;;;;;0.93;0.88;;;;;;;16.29;73.04;100463.88;4983495;28;20033;-74
2021/09/11 06:11:20;;;;;;;0.88;0.88;;;;;;;16.25;73.20;100462.84;5016066;28;20025;-74
2021/09/11 06:13:45;;;;;;;1.15;0.85;;;;;;;16.20;73.09;100461.00;5007159;28;20022;-75
2021/09/11 06:16:11;;;;;;;2.35;0.90;;;;;;;16.16;73.04;100455.25;5011645;28;20522;-74
2021/09/11 06:18:36;;;;;;;1.10;1.00;;;;;;;16.16;73.14;100462.72;4984808;28;20030;-76
2021/09/11 06:21:02;;;;;;;2.17;1.17;;;;;;;16.13;73.41;100472.41;5018262;28;20399;-76
2021/09/11 06:23:27;;;;;;;2.33;0.95;;;;;;;16.11;73.41;100469.16;5008603;28;20431;-75
2021/09/11 06:25:53;;;;;;;0.75;0.73;;;;;;;16.07;73.36;100473.63;4999490;28;20057;-74
2021/09/11 06:28:21;;;;;;;1.00;0.73;;;;;;;16.04;73.39;100477.78;5015623;28;20029;-75
2021/09/11 06:30:47;;;;;;;1.83;1.10;;;;;;;16.05;73.56;100475.88;5014084;28;20456;-75
2021/09/11 06:33:13;;;;;;;1.65;0.80;;;;;;;16.04;73.87;100475.03;5014389;28;20048;-77
2021/09/11 06:35:38;;;;;;;1.55;0.88;;;;;;;15.99;74.13;100477.06;5005876;28;20022;-75
2021/09/11 06:38:04;;;;;;;0.75;0.75;;;;;;;16.01;73.81;100485.88;5006757;28;20033;-75
2021/09/11 06:40:29;;;;;;;2.60;1.23;;;;;;;16.00;73.82;100481.47;5005637;28;20041;-75
2021/09/11 06:42:55;;;;;;;1.38;0.93;;;;;;;16.00;73.71;100484.22;5001485;28;20696;-74
2021/09/11 06:45:20;;;;;;;1.70;1.20;;;;;;;15.98;73.72;100476.25;5006978;28;20116;-74
2021/09/11 06:47:45;;;;;;;0.65;0.60;;;;;;;15.98;73.50;100484.53;5017612;28;20021;-77
2021/09/11 06:50:12;;;;;;;0.68;0.68;;;;;;;16.01;73.75;100494.16;4980944;28;20034;-74
2021/09/11 06:52:37;;;;;;;1.85;1.27;;;;;;;16.03;74.03;100505.69;4978865;28;20038;-74
2021/09/11 06:55:04;;;;;;;4.32;0.93;;;;;;;16.03;74.17;100501.00;4999644;28;20034;-71
2021/09/11 06:57:29;;;;;;;3.72;1.42;;;;;;;16.11;73.79;100507.78;5013508;28;20038;-74
2021/09/11 06:59:56;;;;;;;0.95;0.88;;;;;;;16.11;73.65;100502.25;5019692;28;20052;-74
2021/09/11 07:02:25;;;;;;;0.60;0.60;;;;;;;16.16;73.38;100510.44;5011305;28;20018;-76
2021/09/11 07:04:58;;;;;;;1.40;0.80;;;;;;;16.12;73.51;100503.91;5028933;28;20026;-80
2021/09/11 07:07:23;;;;;;;1.45;0.75;;;;;;;16.12;73.44;100505.81;5034614;28;20033;-77
2021/09/11 07:09:56;;;;;;;3.38;1.58;;;;;;;16.11;73.88;100496.72;4999624;28;20025;-77
2021/09/11 07:12:24;;;;;;;1.00;0.80;;;;;;;16.18;73.96;100510.97;5024956;28;20085;-78
2021/09/11 07:14:49;;;;;;;1.17;1.05;;;;;;;16.16;73.59;100507.66;4972210;28;20067;-82
2021/09/11 07:17:27;;;;;;;1.30;1.20;;;;;;;16.22;73.97;100498.22;4984255;28;20058;-79
2021/09/11 07:20:05;;;;;;;2.90;1.02;;;;;;;16.42;73.87;100523.78;5002620;28;20048;-77
2021/09/11 07:23:01;;;;;;;;;;;;;;;;;;;;;
2021/09/11 07:25:34;;;;;;;;;;;;;;;16.58;73.28;100521.59;5019282;28;20032;-75
2021/09/11 07:27:59;;;;;;;4.65;1.40;;;;;;;16.47;73.66;100509.91;4979951;28;19921;-76
2021/09/11 07:30:25;;;;;;;5.22;1.10;;;;;;;16.58;73.83;100518.81;4983474;28;20098;-75
2021/09/11 07:32:50;;;;;;;3.10;1.40;;;;;;;16.75;73.33;100532.03;4995665;28;20037;-76
2021/09/11 07:35:26;;;;;;;2.63;1.60;;;;;;;16.87;73.51;100524.09;5016060;28;20034;-76
2021/09/11 07:37:55;;;;;;;3.50;1.35;;;;;;;17.00;72.99;100532.72;4996674;28;20026;-75
2021/09/11 07:40:23;;;;;;;1.65;1.08;;;;;;;17.13;72.87;100536.56;4995205;28;20464;-76
2021/09/11 07:42:48;;;;;;;1.20;1.10;;;;;;;17.20;72.52;100525.94;5003674;28;20036;-74
2021/09/11 07:45:14;;;;;;;5.88;0.93;;;;;;;17.35;72.13;100522.03;5011478;28;20384;-75
2021/09/11 07:47:47;;;;;;;2.53;1.55;;;;;;;17.59;72.06;100536.41;4965471;28;20152;-74
2021/09/11 07:50:15;;;;;;;1.20;1.10;;;;;;;17.77;71.44;100528.28;5005072;28;20022;-77
2021/09/11 07:52:47;;;;;;;5.05;0.93;;;;;;;18.12;71.14;100540.50;4993057;28;20025;-74
2021/09/11 07:55:13;;;;;;;7.90;1.33;;;;;;;18.54;70.23;100534.72;4995056;28;20041;-78
2021/09/11 07:57:42;;;;;;;0.98;0.88;;;;;;;18.96;68.96;100546.34;4996271;28;20038;-79
2021/09/11 08:00:10;;;;;;;2.40;1.05;;;;;;;19.19;67.75;100532.44;4981450;28;20774;-82
2021/09/11 08:02:45;;;;;;;8.00;1.05;;;;;;;19.21;66.59;100537.66;4991243;28;20034;-76
2021/09/11 08:05:11;;;;;;;2.63;1.45;;;;;;;19.20;65.86;100539.59;5018736;28;20025;-77
2021/09/11 08:07:39;;;;;;;6.30;1.65;;;;;;;19.24;65.81;100557.22;5002499;28;20083;-78
2021/09/11 08:10:05;;;;;;;3.60;1.05;;;;;;;19.18;65.61;100552.97;4987404;28;20034;-77
2021/09/11 08:12:31;;;;;;;4.18;1.13;;;;;;;19.18;65.79;100551.00;4962896;28;20027;-75
2021/09/11 08:14:58;;;;;;;1.30;0.85;;;;;;;19.22;65.20;100564.25;5006469;28;20057;-75
2021/09/11 08:17:23;;;;;;;1.30;1.00;;;;;;;19.23;65.88;100563.91;4995371;28;20053;-75
2021/09/11 08:19:51;;;;;;;1.88;1.00;;;;;;;19.34;65.90;100570.78;5000055;28;20056;-77
2021/09/11 08:22:17;;;;;;;0.85;0.85;;;;;;;19.46;65.31;100574.91;5013610;28;20095;-74
2021/09/11 08:24:45;;;;;;;1.23;0.70;;;;;;;19.57;65.06;100565.13;5003491;28;20030;-74
2021/09/11 08:27:11;;;;;;;2.75;1.00;;;;;;;19.74;64.61;100580.16;5012432;28;20030;-75
2021/09/11 08:29:47;;;;;;;1.08;0.98;;;;;;;19.78;64.33;100568.13;5015181;28;20052;-75
2021/09/11 08:32:13;;;;;;;8.15;1.25;;;;;;;19.87;63.49;100576.44;5018143;28;20112;-74
2021/09/11 08:34:43;;;;;;;2.85;1.20;;;;;;;19.86;63.52;100580.41;5011457;28;20034;-78
2021/09/11 08:37:18;;;;;;;1.83;0.90;;;;;;;19.92;63.51;100576.31;4993936;28;20099;-78
2021/09/11 08:39:44;;;;;;;;;;;;;;;20.16;63.21;100586.09;4994714;28;20072;-75
2021/09/11 08:42:12;;;;;;;1.33;0.60;;;;;;;20.15;62.71;100590.00;5016320;28;20368;-75
2021/09/11 08:44:38;;;;;;;3.10;0.82;;;;;;;20.19;62.42;100580.72;5012433;28;20036;-79
2021/09/11 08:47:07;;;;;;;2.60;0.63;;;;;;;20.45;62.99;100581.84;5001781;28;20033;-78
2021/09/11 08:49:37;;;;;;;1.92;0.80;;;;;;;20.72;61.56;100583.44;4995211;28;20025;-79
2021/09/11 08:52:14;;;;;;;;;;;;;;;;;;;;;
2021/09/11 08:54:41;;;;;;;1.85;0.80;;;;;;;21.14;60.55;100597.50;5014994;28;20105;-78
2021/09/11 08:57:26;;;;;;;0.60;0.60;;;;;;;21.67;60.84;100598.09;5017607;28;20061;-78
2021/09/11 08:59:57;;;;;;;3.55;0.88;;;;;;;21.90;57.75;100606.13;5014730;28;20092;-79
2021/09/11 09:02:24;;;;;;;0.90;0.63;;;;;;;22.09;57.27;100608.44;5012610;28;20054;-78
2021/09/11 09:04:53;;;;;;;2.33;0.60;;;;;;;22.26;56.92;100613.84;5004741;28;20399;-78
2021/09/11 09:08:01;;;;;;;0.70;0.47;;;;;;;22.42;56.37;100608.50;5015552;28;20018;-75
2021/09/11 09:10:27;;;;;;;7.30;1.83;;;;;;;22.65;55.16;100613.72;4994112;28;20037;-80
2021/09/11 09:12:53;;;;;;;1.23;0.40;;;;;;;22.70;54.73;100616.25;4993543;28;20031;-77
2021/09/11 09:15:24;;;;;;;4.30;0.68;;;;;;;22.69;54.86;100614.63;5013112;28;20038;-76
2021/09/11 09:17:52;;;;;;;0.68;0.52;;;;;;;22.71;54.67;100609.53;5015222;28;20046;-77
2021/09/11 09:20:27;;;;;;;0.93;0.70;;;;;;;22.81;55.16;100617.47;4997928;28;20030;-76
2021/09/11 09:22:58;;;;;;;0.80;0.57;;;;;;;23.02;54.54;100624.94;5011191;28;20957;-76
2021/09/11 09:25:29;;;;;;;0.52;0.52;;;;;;;23.25;54.08;100619.78;5012676;28;20022;-76
2021/09/11 09:28:02;;;;;;;1.67;1.40;;;;;;;23.36;52.44;100620.13;4993804;28;20535;-74
2021/09/11 09:30:49;;;;;;;0.75;0.60;;;;;;;23.41;52.59;100621.84;5000850;28;20026;-74
2021/09/11 09:33:19;;;;;;;0.60;0.60;;;;;;;23.30;51.20;100621.50;5010488;28;20476;-73
2021/09/11 09:35:45;;;;;;;0.85;0.52;;;;;;;23.29;51.86;100615.13;4998019;28;20764;-73
2021/09/11 09:38:11;;;;;;;0.73;0.63;;;;;;;23.58;52.22;100609.66;5011611;28;20037;-74
2021/09/11 09:40:52;;;;;;;0.88;0.60;;;;;;;24.07;50.56;100626.34;5014580;28;20038;-74
2021/09/11 09:43:41;;;;;;;0.70;0.60;;;;;;;24.07;49.42;100620.78;4984994;28;20353;-75
2021/09/11 09:46:26;;;;;;;1.00;0.63;;;;;;;24.00;50.19;100610.19;5010402;28;20084;-75
2021/09/11 09:48:59;;;;;;;1.17;0.57;;;;;;;24.39;50.36;100618.09;5002283;28;20022;-75
2021/09/11 09:51:25;;;;;;;3.45;0.70;;;;;;;24.81;48.28;100611.28;5003687;28;20022;-76
2021/09/11 09:53:50;;;;;;;3.50;1.83;;;;;;;25.25;46.84;100612.03;5006135;28;20044;-74
2021/09/11 09:56:18;;;;;;;1.88;0.98;;;;;;;25.48;45.93;100613.38;4986790;28;20448;-74
2021/09/11 09:58:43;;;;;;;2.05;0.98;;;;;;;25.69;46.36;100613.09;5006171;28;20118;-73
2021/09/11 10:01:12;;;;;;;1.08;0.50;;;;;;;26.12;46.16;100609.28;4996074;28;20129;-76
2021/09/11 10:03:38;;;;;;;1.23;0.73;;;;;;;26.41;44.92;100609.06;5010706;28;20031;-76
2021/09/11 10:06:29;;;;;;;1.67;0.47;;;;;;;26.95;46.04;100610.91;4994099;28;20037;-75
2021/09/11 10:08:58;;;;;;;0.73;0.47;;;;;;;27.49;41.44;100611.81;4996920;28;20038;-75
2021/09/11 10:11:44;;;;;;;1.25;0.50;;;;;;;27.32;41.11;100612.31;5008539;28;20041;-76
2021/09/11 10:17:07;;;;;;;0.65;0.40;;;;;;;26.83;40.47;100597.06;5000511;28;20039;-73
2021/09/11 10:19:42;;;;;;;1.13;0.60;;;;;;;26.74;41.37;100621.75;5005288;28;20041;-75
2021/09/11 10:22:21;;;;;;;0.70;0.60;;;;;;;26.76;42.22;100620.16;5012327;28;20026;-76
2021/09/11 10:24:49;;;;;;;0.50;0.40;;;;;;;27.78;42.61;100617.06;4999207;28;20122;-76
2021/09/11 10:27:25;;;;;;;1.25;0.40;;;;;;;28.33;40.10;100620.25;5013654;28;20484;-77
2021/09/11 10:29:53;;;;;;;1.50;0.45;;;;;;;28.75;38.34;100614.69;5008560;28;20030;-75
2021/09/11 10:32:36;;;;;;;2.15;0.80;;;;;;;28.75;37.10;100612.69;5015342;28;20139;-73
2021/09/11 10:35:09;;;;;;;4.60;1.00;;;;;;;29.01;37.22;100616.56;5013344;28;20425;-73
2021/09/11 10:37:51;;;;;;;4.85;0.73;;;;;;;29.36;37.01;100621.69;5013339;28;20181;-73
2021/09/11 10:40:19;;;;;;;8.32;0.75;;;;;;;30.30;35.70;100602.56;4990480;28;20027;-73
2021/09/11 10:43:06;;;;;;;1.13;0.45;;;;;;;30.83;33.26;100608.78;4991122;28;20045;-73
2021/09/11 10:45:56;;;;;;;0.60;0.45;;;;;;;30.15;33.35;100598.06;4993421;28;20030;-72
2021/09/11 10:48:34;;;;;;;0.63;0.43;;;;;;;29.85;35.18;100599.13;5006284;28;20026;-74
2021/09/11 10:51:20;;;;;;;1.77;0.30;;;;;;;30.25;35.91;100600.09;5004323;28;20037;-74
2021/09/11 10:53:59;;;;;;;0.65;0.32;;;;;;;30.86;34.44;100599.50;4995768;28;20057;-73
2021/09/11 10:56:27;;;;;;;1.30;0.60;;;;;;;30.56;33.01;100598.63;4995753;28;20970;-74
2021/09/11 10:59:18;;;;;;;2.30;0.47;;;;;;;29.67;32.97;100599.81;5006743;28;20119;-73
2021/09/11 11:02:02;;;;;;;1.17;0.63;;;;;;;28.58;34.26;100597.22;5004036;28;20468;-73
2021/09/11 11:04:30;;;;;;;0.73;0.50;;;;;;;28.56;35.58;100600.41;4983133;28;20416;-73
2021/09/11 11:06:58;;;;;;;0.93;0.60;;;;;;;28.32;35.19;100596.13;5004339;28;20032;-73
2021/09/11 11:09:24;;;;;;;0.70;0.50;;;;;;;27.69;35.95;100592.88;5008752;28;20132;-72
2021/09/11 11:11:53;;;;;;;3.60;0.32;;;;;;;27.04;37.22;100593.00;5013765;28;20048;-72
2021/09/11 11:14:19;;;;;;;3.30;0.40;;;;;;;26.53;38.48;100589.25;5017495;28;20028;-73
2021/09/11 11:16:50;;;;;;;0.50;0.43;;;;;;;26.13;39.30;100582.06;5012466;28;20030;-74
2021/09/11 11:19:27;;;;;;;0.47;0.47;;;;;;;26.45;41.28;100596.72;4994222;28;20054;-74
2021/09/11 11:21:59;;;;;;;0.80;0.43;;;;;;;28.49;40.33;100596.69;5012823;28;20026;-74
2021/09/11 11:24:29;;;;;;;0.63;0.52;;;;;;;30.81;34.92;100603.50;5010737;28;20022;-72
2021/09/11 11:26:58;;;;;;;1.40;0.73;;;;;;;32.63;31.77;100599.94;4994433;28;20032;-73
2021/09/11 11:29:25;;;;;;;0.50;0.40;;;;;;;33.62;28.38;100595.94;4994718;28;20449;-72
2021/09/11 11:31:51;;;;;;;0.98;0.70;;;;;;;33.78;27.25;100601.06;4995115;28;20037;-73
2021/09/11 11:34:16;;;;;;;0.40;0.40;;;;;;;33.72;26.46;100592.19;4988739;28;20025;-73
2021/09/11 11:37:02;;;;;;;2.72;0.57;;;;;;;35.08;26.22;100583.06;5011148;28;20042;-73